Cornwall Bridge, Connecticut
Current Conditions -  °F | °C
As of 4:35 AM on Monday 24 Nov 2014 (Local Time) from KOXC Reporting Station
Overcast Overcast  
Wind Chill: 13°   Ceiling: 400
Heat Index: 13°   Visibility: 7mi
Dew Point: 11°   Wind: 15mph
Humidity: 88%   Direction: 140°SE
Pressure: 29.82"   Gusts: 24mph
Location:  41.82°N, 73.37°W
Report Text: KOXC 240935Z 14013G21KT 7SM OVC004 13/11 A2982 RMK AO1 P0021
Loading
Personal Weather Stations






























Interactive Weather Map New forecast layout! Learn more

10-Day Weather Forecast

Advertisements
Track Severe Weather on mobile